Terminal Aerodrome Forecast
Issued by NWS Mt. Holly, NJ

Current Version | Previous Version | Text Only | Print | Product List | Glossary On
Versions: 1 2 3 4 5 6 7 8 9 10 11 12 13 14 15 16 17 18 19 20 21 22
000
FTUS41 KPHI 100800 AAA
TAFACY
TAF AMD
KACY 100839Z 1009/1106 VRB03KT P6SM SCT012 BKN100
      TEMPO 1009/1012 4SM BR BKN012 OVC100
     FM101200 VRB03KT P6SM SCT035 BKN100
     FM101600 12008KT P6SM SCT045
      TEMPO 1019/1023 SHRA OVC045
     FM110100 VRB04KT P6SM SCT045 BKN100=

USA.gov is the U.S. government's official web portal to all federal, state and local government web resources and services.